Time;durP1;ratioP1;P1;durP2;ratioP2;P2;SDS_P1;SDS_P2;PMS_P1;PMS_P2;Temp;Humidity;BMP_temperature;BMP_pressure;BME280_temperature;BME280_humidity;BME280_pressure;Samples;Min_cycle;Max_cycle;Signal;HPM_P1;HPM_P2
2023/06/08 00:00:25;;;;;;;10.15;4.30;;;17.70;99.90;;;;;;4892613;29;20190;-68
2023/06/08 00:02:55;;;;;;;7.72;4.43;;;17.60;99.90;;;;;;4888589;29;20196;-69
2023/06/08 00:05:23;;;;;;;6.85;4.47;;;17.80;99.90;;;;;;4891724;29;20229;-69
2023/06/08 00:07:50;;;;;;;6.63;4.03;;;17.70;99.90;;;;;;4888983;29;20197;-69
2023/06/08 00:10:17;;;;;;;6.00;4.18;;;17.70;99.90;;;;;;4890618;29;20209;-69
2023/06/08 00:12:44;;;;;;;6.28;4.07;;;17.60;99.90;;;;;;4891238;29;20222;-68
2023/06/08 00:15:13;;;;;;;7.97;4.25;;;17.70;99.90;;;;;;4889664;29;20580;-68
2023/06/08 00:17:40;;;;;;;5.68;3.65;;;17.80;99.90;;;;;;4881332;29;20200;-69
2023/06/08 00:20:09;;;;;;;7.80;4.38;;;17.80;99.90;;;;;;4884161;29;20260;-69
2023/06/08 00:22:36;;;;;;;9.80;4.47;;;17.80;99.90;;;;;;4878036;29;20208;-69
2023/06/08 00:25:05;;;;;;;9.15;4.63;;;17.70;99.90;;;;;;4875330;29;20301;-68
2023/06/08 00:27:32;;;;;;;8.57;4.72;;;17.60;99.90;;;;;;4892624;29;20284;-70
2023/06/08 00:29:59;;;;;;;12.70;4.70;;;17.40;99.90;;;;;;4877500;29;20565;-70
2023/06/08 00:32:26;;;;;;;13.38;4.65;;;17.50;99.90;;;;;;4862211;29;20977;-70
2023/06/08 00:34:53;;;;;;;10.98;4.50;;;17.50;99.90;;;;;;4874723;29;20229;-70
2023/06/08 00:37:22;;;;;;;10.48;4.68;;;17.50;99.90;;;;;;4880447;29;20200;-70
2023/06/08 00:39:49;;;;;;;6.70;3.95;;;17.50;99.90;;;;;;4887347;29;20201;-70
2023/06/08 00:42:16;;;;;;;12.50;4.85;;;17.30;99.90;;;;;;4876366;29;20205;-70
2023/06/08 00:44:43;;;;;;;7.32;4.25;;;17.10;99.90;;;;;;4891326;29;20209;-70
2023/06/08 00:47:10;;;;;;;9.07;4.72;;;17.10;99.90;;;;;;4875197;29;20212;-69
2023/06/08 00:49:38;;;;;;;6.75;4.60;;;17.10;99.90;;;;;;4891334;29;20205;-70
2023/06/08 00:52:07;;;;;;;6.65;3.83;;;17.00;99.90;;;;;;4878196;29;20687;-70
2023/06/08 00:54:40;;;;;;;9.07;4.57;;;17.10;99.90;;;;;;4874667;29;20240;-70
2023/06/08 00:57:09;;;;;;;6.40;4.07;;;17.10;99.90;;;;;;4888145;29;20215;-70
2023/06/08 00:59:36;;;;;;;10.10;4.57;;;17.10;99.90;;;;;;4879146;29;20193;-69
2023/06/08 01:02:06;;;;;;;6.50;4.55;;;16.90;99.90;;;;;;4882098;29;20186;-68
2023/06/08 01:04:35;;;;;;;7.85;4.40;;;16.90;99.90;;;;;;4895282;29;20727;-68
2023/06/08 01:07:14;;;;;;;9.55;4.90;;;16.90;99.90;;;;;;4880761;29;20231;-68
2023/06/08 01:09:54;;;;;;;8.85;4.65;;;17.00;99.90;;;;;;4859894;29;20381;-68
2023/06/08 01:12:33;;;;;;;11.38;5.03;;;17.10;99.90;;;;;;4872264;29;20226;-69
2023/06/08 01:15:09;;;;;;;9.35;4.88;;;16.90;99.90;;;;;;4873113;29;20223;-70
2023/06/08 01:17:42;;;;;;;9.20;5.22;;;16.80;99.90;;;;;;4873584;29;20193;-70
2023/06/08 01:20:48;;;;;;;8.75;4.20;;;16.80;99.90;;;;;;4891185;29;20196;-70
2023/06/08 01:23:34;;;;;;;8.07;5.10;;;16.70;99.90;;;;;;4882435;29;20234;-71
2023/06/08 01:26:03;;;;;;;8.50;5.07;;;16.50;99.90;;;;;;4874758;29;20300;-68
2023/06/08 01:28:31;;;;;;;8.13;4.85;;;16.40;99.90;;;;;;4892286;29;20209;-68
2023/06/08 01:30:58;;;;;;;9.70;4.60;;;16.30;99.90;;;;;;4874753;29;20208;-68
2023/06/08 01:33:29;;;;;;;10.30;5.50;;;16.40;99.90;;;;;;4878478;29;20205;-68
2023/06/08 01:36:02;;;;;;;11.67;4.83;;;16.30;99.90;;;;;;4875690;29;20510;-68
2023/06/08 01:38:40;;;;;;;11.68;5.00;;;16.20;99.90;;;;;;4891957;29;20225;-71
2023/06/08 01:41:17;;;;;;;9.77;4.80;;;16.10;99.90;;;;;;4890431;29;20197;-68
2023/06/08 01:43:50;;;;;;;7.47;4.63;;;16.10;99.90;;;;;;4886524;29;20235;-68
2023/06/08 01:46:20;;;;;;;8.80;4.93;;;16.00;99.90;;;;;;4892806;29;20640;-68
2023/06/08 01:48:49;;;;;;;7.82;4.38;;;16.30;99.90;;;;;;4892787;29;20284;-68
2023/06/08 01:51:18;;;;;;;6.97;4.28;;;16.60;99.90;;;;;;4882475;29;20675;-68
2023/06/08 01:53:45;;;;;;;8.82;4.78;;;16.50;99.90;;;;;;4863431;29;20201;-68
2023/06/08 01:56:13;;;;;;;9.73;5.70;;;16.50;99.90;;;;;;4879415;29;20704;-69
2023/06/08 01:58:41;;;;;;;10.32;5.93;;;16.50;99.90;;;;;;4862537;29;20236;-68
2023/06/08 02:01:08;;;;;;;11.70;5.63;;;16.60;99.90;;;;;;4893549;29;20214;-68
2023/06/08 02:03:35;;;;;;;11.80;6.47;;;16.70;99.90;;;;;;4879319;29;20255;-68
2023/06/08 02:06:02;;;;;;;12.90;6.03;;;16.70;99.90;;;;;;4878527;29;20624;-69
2023/06/08 02:08:32;;;;;;;9.88;6.38;;;16.70;99.90;;;;;;4868300;29;20208;-70
2023/06/08 02:10:59;;;;;;;11.82;7.65;;;16.70;99.90;;;;;;4888675;29;20204;-67
2023/06/08 02:13:26;;;;;;;13.05;6.40;;;16.80;99.90;;;;;;4882032;29;20592;-65
2023/06/08 02:15:53;;;;;;;9.27;5.22;;;16.80;99.90;;;;;;4878911;29;20726;-64
2023/06/08 02:18:21;;;;;;;7.97;4.85;;;16.80;99.90;;;;;;4889136;29;20217;-63
2023/06/08 02:20:48;;;;;;;7.85;4.80;;;16.80;99.90;;;;;;4887967;29;20750;-64
2023/06/08 02:23:16;;;;;;;12.07;5.18;;;16.80;99.90;;;;;;4863222;29;20592;-66
2023/06/08 02:25:43;;;;;;;9.02;4.95;;;16.70;99.90;;;;;;4885272;29;20748;-63
2023/06/08 02:28:10;;;;;;;11.30;4.50;;;16.70;99.90;;;;;;4877442;29;20707;-63
2023/06/08 02:30:37;;;;;;;10.90;5.97;;;16.70;99.90;;;;;;4881106;29;20220;-63
2023/06/08 02:33:04;;;;;;;10.60;5.80;;;16.70;99.90;;;;;;4893593;29;20835;-62
2023/06/08 02:35:31;;;;;;;12.90;5.05;;;16.80;99.90;;;;;;4890383;29;20789;-62
2023/06/08 02:37:59;;;;;;;11.02;4.20;;;16.80;99.90;;;;;;4892376;29;20213;-62
2023/06/08 02:40:26;;;;;;;7.40;4.25;;;16.70;99.90;;;;;;4880605;29;20201;-62
2023/06/08 02:42:53;;;;;;;5.43;4.05;;;16.80;99.90;;;;;;4879854;29;20567;-62
2023/06/08 02:45:22;;;;;;;9.90;4.20;;;16.90;99.90;;;;;;4873241;29;20205;-63
2023/06/08 02:47:49;;;;;;;9.07;5.25;;;16.90;99.90;;;;;;4862423;29;20193;-63
2023/06/08 02:50:16;;;;;;;8.50;5.07;;;16.90;99.90;;;;;;4890665;29;20193;-63
2023/06/08 02:52:44;;;;;;;8.38;5.30;;;17.00;99.90;;;;;;4892372;29;20205;-63
2023/06/08 02:55:11;;;;;;;15.27;4.97;;;17.00;99.90;;;;;;4871205;29;20228;-63
2023/06/08 02:57:38;;;;;;;8.05;5.70;;;17.00;99.90;;;;;;4890515;29;20669;-62
2023/06/08 03:00:12;;;;;;;7.75;4.97;;;16.90;99.90;;;;;;4868450;29;20238;-63
2023/06/08 03:03:02;;;;;;;10.02;4.00;;;16.90;99.90;;;;;;4883928;29;20200;-63
2023/06/08 03:05:34;;;;;;;10.98;4.50;;;16.90;99.90;;;;;;4879811;29;20197;-62
2023/06/08 03:08:02;;;;;;;8.98;4.47;;;16.90;99.90;;;;;;4877668;29;20205;-62
2023/06/08 03:10:29;;;;;;;10.57;5.45;;;17.00;99.90;;;;;;4875875;29;20205;-63
2023/06/08 03:12:56;;;;;;;8.18;4.82;;;16.90;99.90;;;;;;4876212;29;20201;-63
2023/06/08 03:15:26;;;;;;;11.57;5.18;;;17.00;99.90;;;;;;4877867;29;20220;-63
2023/06/08 03:17:58;;;;;;;10.05;4.78;;;17.10;99.90;;;;;;4876680;29;20291;-63
2023/06/08 03:20:26;;;;;;;7.05;4.28;;;17.10;99.90;;;;;;4875114;29;20209;-63
2023/06/08 03:23:00;;;;;;;7.38;4.45;;;17.00;99.90;;;;;;4873041;29;20256;-63
2023/06/08 03:25:29;;;;;;;8.43;4.68;;;17.00;99.90;;;;;;4873653;29;20746;-63
2023/06/08 03:27:56;;;;;;;8.05;4.72;;;17.00;99.90;;;;;;4884425;29;20235;-63
2023/06/08 03:30:23;;;;;;;7.80;4.45;;;16.80;99.90;;;;;;4891484;29;20742;-63
2023/06/08 03:32:53;;;;;;;10.85;5.32;;;16.90;99.90;;;;;;4875457;29;20339;-63
2023/06/08 03:35:34;;;;;;;11.80;5.22;;;16.90;99.90;;;;;;4884357;29;20220;-63
2023/06/08 03:38:15;;;;;;;9.98;4.60;;;16.90;99.90;;;;;;4871160;29;20225;-65
2023/06/08 03:40:42;;;;;;;10.27;4.28;;;16.80;99.90;;;;;;4871306;29;20644;-63
2023/06/08 03:43:10;;;;;;;6.88;4.40;;;16.90;99.90;;;;;;4877268;29;20197;-65
2023/06/08 03:45:37;;;;;;;8.50;4.10;;;16.90;99.90;;;;;;4874538;29;20228;-62
2023/06/08 03:48:04;;;;;;;9.38;3.90;;;17.00;99.90;;;;;;4890601;29;20800;-61
2023/06/08 03:50:33;;;;;;;13.90;5.35;;;17.00;99.90;;;;;;4871143;29;20236;-62
2023/06/08 03:53:00;;;;;;;7.65;4.03;;;17.00;99.90;;;;;;4877285;29;20673;-62
2023/06/08 03:55:28;;;;;;;6.95;3.95;;;17.20;99.90;;;;;;4872610;29;20217;-62
2023/06/08 03:57:56;;;;;;;10.32;4.20;;;17.00;99.90;;;;;;4886461;29;20236;-65
2023/06/08 04:00:23;;;;;;;8.93;4.10;;;17.20;99.90;;;;;;4876714;29;20693;-64
2023/06/08 04:02:54;;;;;;;7.97;4.40;;;17.30;99.90;;;;;;4882680;29;20734;-65
2023/06/08 04:05:23;;;;;;;8.20;4.30;;;17.10;99.90;;;;;;4875975;29;20243;-65
2023/06/08 04:07:53;;;;;;;6.65;4.55;;;16.80;99.90;;;;;;4873850;29;20205;-63
2023/06/08 04:10:20;;;;;;;12.02;4.57;;;16.60;99.90;;;;;;4874724;29;20205;-63
2023/06/08 04:12:47;;;;;;;10.07;4.22;;;16.70;99.90;;;;;;4887745;29;20322;-63
2023/06/08 04:15:14;;;;;;;8.63;4.10;;;16.70;99.90;;;;;;4869671;29;20293;-62
2023/06/08 04:17:46;;;;;;;8.40;4.68;;;16.70;99.90;;;;;;4860337;29;20680;-62
2023/06/08 04:20:16;;;;;;;11.25;4.72;;;16.60;99.90;;;;;;4867080;29;20722;-62
2023/06/08 04:22:43;;;;;;;6.40;5.03;;;16.20;99.90;;;;;;4884185;29;20200;-62
2023/06/08 04:25:12;;;;;;;11.40;5.03;;;16.10;99.90;;;;;;4873314;29;21751;-61
2023/06/08 04:27:39;;;;;;;9.43;4.32;;;16.30;99.90;;;;;;4878189;29;20208;-62
2023/06/08 04:30:07;;;;;;;7.40;4.50;;;16.30;99.90;;;;;;4878551;29;20207;-62
2023/06/08 04:32:34;;;;;;;8.55;4.43;;;16.40;99.90;;;;;;4891582;29;20193;-63
2023/06/08 04:35:03;;;;;;;7.90;4.50;;;16.40;99.90;;;;;;4875474;29;20292;-62
2023/06/08 04:37:33;;;;;;;14.33;5.53;;;16.50;99.90;;;;;;4873596;29;20698;-62
2023/06/08 04:40:04;;;;;;;12.97;5.33;;;16.20;99.90;;;;;;4873272;29;20309;-62
2023/06/08 04:42:39;;;;;;;9.03;5.10;;;16.00;99.90;;;;;;4874117;29;20580;-62
2023/06/08 04:45:08;;;;;;;7.87;4.63;;;16.30;99.90;;;;;;4861718;29;20204;-63
2023/06/08 04:47:40;;;;;;;9.73;4.77;;;16.40;99.90;;;;;;4872177;29;20193;-62
2023/06/08 04:50:08;;;;;;;8.07;4.97;;;16.60;99.90;;;;;;4880293;29;20255;-61
2023/06/08 04:52:40;;;;;;;10.70;5.22;;;16.70;99.90;;;;;;4875653;29;20349;-61
2023/06/08 04:55:13;;;;;;;5.88;3.75;;;17.00;99.90;;;;;;4889342;29;20203;-61
2023/06/08 04:57:41;;;;;;;7.35;4.13;;;17.20;99.90;;;;;;4886611;29;20657;-61
2023/06/08 05:00:10;;;;;;;10.40;4.25;;;17.60;99.90;;;;;;4875021;29;20277;-65
2023/06/08 05:02:38;;;;;;;9.60;4.28;;;18.00;99.90;;;;;;4885529;29;20678;-63
2023/06/08 05:05:07;;;;;;;8.20;4.40;;;17.90;99.90;;;;;;4889006;29;20718;-62
2023/06/08 05:07:34;;;;;;;7.25;3.85;;;17.90;99.90;;;;;;4891322;29;20204;-62
2023/06/08 05:10:03;;;;;;;8.07;4.10;;;17.50;99.90;;;;;;4889584;29;20205;-62
2023/06/08 05:12:30;;;;;;;7.63;4.28;;;17.20;99.90;;;;;;4893609;29;20204;-62
2023/06/08 05:14:59;;;;;;;9.65;4.55;;;17.40;99.90;;;;;;4887457;29;20197;-61
2023/06/08 05:17:26;;;;;;;6.43;3.80;;;17.10;99.90;;;;;;4887145;29;20312;-61
2023/06/08 05:19:53;;;;;;;9.13;4.25;;;17.40;99.90;;;;;;4878780;29;20220;-62
2023/06/08 05:22:20;;;;;;;7.22;3.53;;;17.80;99.90;;;;;;4890377;29;20726;-64
2023/06/08 05:24:47;;;;;;;5.97;3.90;;;18.20;99.90;;;;;;4891870;29;20233;-63
2023/06/08 05:27:17;;;;;;;6.18;4.40;;;18.70;99.90;;;;;;4874281;29;20201;-63
2023/06/08 05:29:44;;;;;;;5.53;3.38;;;19.20;99.90;;;;;;4875089;29;20664;-64
2023/06/08 05:32:11;;;;;;;7.15;4.18;;;20.00;99.90;;;;;;4895155;29;20248;-62
2023/06/08 05:34:38;;;;;;;9.30;4.60;;;21.10;99.90;;;;;;4888626;29;20216;-64
2023/06/08 05:37:06;;;;;;;8.63;4.30;;;22.00;99.90;;;;;;4891079;29;20213;-64
2023/06/08 05:39:33;;;;;;;7.60;3.83;;;22.50;99.90;;;;;;4896206;29;20208;-63
2023/06/08 05:42:00;;;;;;;10.68;4.00;;;23.00;99.90;;;;;;4894764;29;20201;-65
2023/06/08 05:44:29;;;;;;;8.07;3.60;;;23.10;99.90;;;;;;4895789;29;20583;-62
2023/06/08 05:46:56;;;;;;;8.23;4.35;;;23.60;99.90;;;;;;4890715;29;20212;-61
2023/06/08 05:49:24;;;;;;;6.25;2.90;;;24.30;99.90;;;;;;4873993;29;20589;-62
2023/06/08 05:51:51;;;;;;;8.52;3.85;;;25.40;99.90;;;;;;4885259;29;20197;-62
2023/06/08 05:54:18;;;;;;;10.52;3.75;;;25.30;99.90;;;;;;4874151;29;20694;-62
2023/06/08 05:56:45;;;;;;;4.75;3.38;;;24.90;99.90;;;;;;4878786;29;20277;-62
2023/06/08 05:59:12;;;;;;;8.20;4.60;;;23.70;99.90;;;;;;4877372;29;20205;-61
2023/06/08 06:01:39;;;;;;;7.47;4.82;;;21.80;99.90;;;;;;4891046;29;20202;-62
2023/06/08 06:04:07;;;;;;;6.47;4.10;;;20.50;99.90;;;;;;4893803;29;20327;-62
2023/06/08 06:06:52;;;;;;;5.55;3.97;;;19.90;99.90;;;;;;4891731;29;20189;-62
2023/06/08 06:09:19;;;;;;;10.40;4.13;;;20.40;99.90;;;;;;4889542;29;20281;-61
2023/06/08 06:11:47;;;;;;;7.40;4.40;;;22.10;99.90;;;;;;4875857;29;20764;-61
2023/06/08 06:14:15;;;;;;;7.15;4.28;;;21.80;99.90;;;;;;4876401;29;20288;-62
2023/06/08 06:16:43;;;;;;;12.23;5.10;;;20.90;99.90;;;;;;4874210;29;20722;-62
2023/06/08 06:19:33;;;;;;;7.32;4.65;;;20.20;99.90;;;;;;4878845;29;20281;-62
2023/06/08 06:22:00;;;;;;;9.15;4.75;;;19.30;99.90;;;;;;4888801;29;20196;-62
2023/06/08 06:24:27;;;;;;;9.20;4.47;;;18.90;99.90;;;;;;4888917;29;20205;-62
2023/06/08 06:26:53;;;;;;;8.18;4.70;;;18.80;99.90;;;;;;4888486;29;20683;-64
2023/06/08 06:29:20;;;;;;;10.20;4.90;;;19.30;99.90;;;;;;4890324;29;20269;-62
2023/06/08 06:31:47;;;;;;;11.10;5.43;;;19.80;99.90;;;;;;4872088;29;20672;-63
2023/06/08 06:34:19;;;;;;;9.95;4.72;;;20.30;99.90;;;;;;4893706;29;20191;-66
2023/06/08 06:36:46;;;;;;;11.43;4.93;;;20.60;99.90;;;;;;4891036;29;20213;-64
2023/06/08 06:39:14;;;;;;;10.40;4.47;;;21.10;99.90;;;;;;4892887;29;20194;-60
2023/06/08 06:41:41;;;;;;;8.52;4.70;;;22.60;99.90;;;;;;4877001;29;20213;-61
2023/06/08 06:44:09;;;;;;;8.88;4.22;;;23.80;99.90;;;;;;4894472;29;20721;-57
2023/06/08 06:46:36;;;;;;;7.28;3.92;;;23.10;99.90;;;;;;4882804;29;20239;-58
2023/06/08 06:49:03;;;;;;;9.90;4.28;;;22.90;99.90;;;;;;4887998;29;20675;-57
2023/06/08 06:51:30;;;;;;;7.65;3.85;;;22.90;99.90;;;;;;4890933;29;20217;-58
2023/06/08 06:53:57;;;;;;;12.88;4.97;;;25.30;99.90;;;;;;4892360;29;20765;-59
2023/06/08 06:56:24;;;;;;;9.70;4.45;;;25.30;99.90;;;;;;4871445;29;20232;-57
2023/06/08 06:58:52;;;;;;;7.00;3.67;;;24.60;99.90;;;;;;4883480;29;20789;-60
2023/06/08 07:01:20;;;;;;;6.70;4.53;;;23.40;99.90;;;;;;4870467;29;20636;-58
2023/06/08 07:03:47;;;;;;;8.02;4.20;;;22.60;99.90;;;;;;4870885;29;20719;-66
2023/06/08 07:06:14;;;;;;;10.43;4.45;;;23.70;99.90;;;;;;4872891;29;20284;-61
2023/06/08 07:08:44;;;;;;;7.97;4.18;;;24.80;99.90;;;;;;4873215;29;20209;-61
2023/06/08 07:11:11;;;;;;;8.63;4.22;;;26.30;99.90;;;;;;4887825;29;20212;-60
2023/06/08 07:13:38;;;;;;;11.45;4.70;;;27.80;99.90;;;;;;4888642;29;20194;-63
2023/06/08 07:16:06;;;;;;;7.47;4.43;;;25.70;99.90;;;;;;4880009;29;20580;-62
2023/06/08 07:18:33;;;;;;;7.78;4.65;;;23.10;99.90;;;;;;4890259;29;20201;-60
2023/06/08 07:21:00;;;;;;;5.43;4.28;;;21.70;99.90;;;;;;4891988;29;20202;-60
2023/06/08 07:23:27;;;;;;;9.13;4.47;;;21.20;99.90;;;;;;4859999;29;20284;-60
2023/06/08 07:26:14;;;;;;;8.00;4.30;;;21.70;99.90;;;;;;4884362;29;20663;-60
2023/06/08 07:29:00;;;;;;;11.35;3.85;;;23.40;99.90;;;;;;4887605;29;20204;-62
2023/06/08 07:31:27;;;;;;;7.75;3.83;;;26.80;99.90;;;;;;4874500;29;20220;-62
2023/06/08 07:33:56;;;;;;;6.95;4.35;;;27.60;99.90;;;;;;4887809;29;20280;-60
2023/06/08 07:36:24;;;;;;;5.63;3.42;;;28.80;99.90;;;;;;4872042;29;20215;-62
2023/06/08 07:38:51;;;;;;;8.63;4.70;;;27.90;99.90;;;;;;4872668;29;20204;-61
2023/06/08 07:41:19;;;;;;;8.48;4.13;;;27.10;99.90;;;;;;4877989;29;20231;-62
2023/06/08 07:43:46;;;;;;;10.85;5.10;;;26.20;99.90;;;;;;4886596;29;20647;-62
2023/06/08 07:46:13;;;;;;;8.85;5.18;;;26.90;99.90;;;;;;4888088;29;20567;-62
2023/06/08 07:48:40;;;;;;;37.25;19.48;;;30.30;99.90;;;;;;4862328;29;20221;-60
2023/06/08 07:51:08;;;;;;;8.00;4.75;;;33.00;99.90;;;;;;4875376;29;20220;-61
2023/06/08 07:53:36;;;;;;;14.90;6.05;;;31.20;99.90;;;;;;4877863;29;20580;-61
2023/06/08 07:56:05;;;;;;;36.38;20.85;;;33.20;99.90;;;;;;4887839;29;20257;-61
2023/06/08 07:58:32;;;;;;;7.13;5.03;;;33.50;99.90;;;;;;4871100;29;20202;-62
2023/06/08 08:01:00;;;;;;;9.48;4.57;;;33.00;99.90;;;;;;4888547;29;20205;-60
2023/06/08 08:03:28;;;;;;;19.10;8.77;;;31.80;99.90;;;;;;4892537;29;20232;-61
2023/06/08 08:05:55;;;;;;;13.70;6.43;;;30.90;99.90;;;;;;4889940;29;20567;-60
2023/06/08 08:08:22;;;;;;;9.57;4.90;;;32.20;99.90;;;;;;4871993;29;20390;-60
2023/06/08 08:10:49;;;;;;;11.10;4.72;;;31.20;99.90;;;;;;4876071;29;20268;-60
2023/06/08 08:13:17;;;;;;;8.85;4.63;;;31.60;99.90;;;;;;4882884;29;20216;-60
2023/06/08 08:15:45;;;;;;;9.88;4.40;;;31.20;99.90;;;;;;4877779;29;20596;-63
2023/06/08 08:18:15;;;;;;;6.53;3.97;;;31.10;99.90;;;;;;4885348;29;20259;-61
2023/06/08 08:20:43;;;;;;;7.35;4.55;;;32.80;99.90;;;;;;4868866;29;20504;-62
2023/06/08 08:23:10;;;;;;;6.25;3.90;;;33.60;99.90;;;;;;4871165;29;20742;-62
2023/06/08 08:25:37;;;;;;;5.40;4.35;;;32.60;99.90;;;;;;4880573;29;20227;-62
2023/06/08 08:28:04;;;;;;;15.07;4.78;;;31.40;99.90;;;;;;4872177;29;20231;-62
2023/06/08 08:30:31;;;;;;;8.52;4.68;;;32.60;99.90;;;;;;4872660;29;20691;-59
2023/06/08 08:32:58;;;;;;;6.28;4.45;;;32.30;99.90;;;;;;4874565;29;20245;-63
2023/06/08 08:35:28;;;;;;;7.70;4.65;;;32.60;99.90;;;;;;4887697;29;20712;-63
2023/06/08 08:37:56;;;;;;;6.43;4.28;;;31.20;99.90;;;;;;4876438;29;20217;-60
2023/06/08 08:40:24;;;;;;;8.88;4.57;;;31.70;99.90;;;;;;4872219;29;20335;-60
2023/06/08 08:43:06;;;;;;;7.32;3.92;;;33.30;99.90;;;;;;4886791;29;20221;-60
2023/06/08 08:45:35;;;;;;;6.22;4.07;;;34.10;99.90;;;;;;4861298;29;20232;-60
2023/06/08 08:48:02;;;;;;;6.10;3.92;;;34.20;99.90;;;;;;4879817;29;20209;-60
2023/06/08 08:50:34;;;;;;;7.20;4.15;;;33.70;99.90;;;;;;4882716;29;20353;-60
2023/06/08 08:53:01;;;;;;;8.52;4.55;;;33.10;99.90;;;;;;4862311;29;20197;-62
2023/06/08 08:55:29;;;;;;;6.03;4.13;;;32.90;99.90;;;;;;4878069;29;20293;-60
2023/06/08 08:58:01;;;;;;;7.68;4.07;;;31.90;99.90;;;;;;4870452;29;20408;-61
2023/06/08 09:00:31;;;;;;;7.18;4.20;;;30.70;99.90;;;;;;4876740;29;20201;-61
2023/06/08 09:03:00;;;;;;;9.88;4.38;;;30.80;99.90;;;;;;4871621;29;20684;-60
2023/06/08 09:05:27;;;;;;;5.43;3.80;;;31.80;99.90;;;;;;4884523;29;20906;-61
2023/06/08 09:07:55;;;;;;;6.03;4.13;;;32.20;99.90;;;;;;4882361;29;20201;-61
2023/06/08 09:10:25;;;;;;;7.78;4.38;;;31.10;99.90;;;;;;4881131;29;20196;-62
2023/06/08 09:13:00;;;;;;;5.70;3.65;;;31.20;99.90;;;;;;4885967;29;20277;-61
2023/06/08 09:15:37;;;;;;;6.70;4.45;;;31.60;99.90;;;;;;4869607;29;20204;-61
2023/06/08 09:18:25;;;;;;;6.72;4.10;;;31.10;99.90;;;;;;4866375;29;20213;-61
2023/06/08 09:20:52;;;;;;;5.88;3.75;;;30.90;99.90;;;;;;4881399;29;20686;-62
2023/06/08 09:23:23;;;;;;;5.78;3.72;;;31.20;99.90;;;;;;4887930;29;20683;-61
2023/06/08 09:25:54;;;;;;;5.25;4.05;;;30.80;99.90;;;;;;4883681;29;20627;-62
2023/06/08 09:28:24;;;;;;;6.57;3.70;;;31.00;99.90;;;;;;4871099;29;21571;-61
2023/06/08 09:30:55;;;;;;;7.18;4.22;;;31.60;99.90;;;;;;4864074;29;20391;-61
2023/06/08 09:33:24;;;;;;;8.18;4.10;;;31.90;99.90;;;;;;4884013;29;20220;-63
2023/06/08 09:35:58;;;;;;;6.07;4.15;;;33.60;99.90;;;;;;4870519;29;20221;-61
2023/06/08 09:38:29;;;;;;;6.93;4.20;;;32.30;99.90;;;;;;4883346;29;20208;-61
2023/06/08 09:41:12;;;;;;;5.90;3.80;;;33.50;99.90;;;;;;4882423;29;20189;-61
2023/06/08 09:43:42;;;;;;;6.35;4.15;;;32.80;99.90;;;;;;4869695;29;20202;-61
2023/06/08 09:46:16;;;;;;;6.15;3.95;;;32.80;99.90;;;;;;4884902;29;20208;-61
2023/06/08 09:48:56;;;;;;;6.15;3.70;;;32.50;99.90;;;;;;4870269;29;20214;-62
2023/06/08 09:51:23;;;;;;;6.82;4.13;;;32.10;99.90;;;;;;4895506;29;20201;-61
2023/06/08 09:53:56;;;;;;;5.93;4.35;;;31.60;99.90;;;;;;4883508;29;20216;-62
2023/06/08 09:56:26;;;;;;;5.70;4.10;;;31.70;99.90;;;;;;4881461;29;20212;-62
2023/06/08 09:59:02;;;;;;;6.65;3.90;;;31.00;99.90;;;;;;4874430;29;20197;-62
2023/06/08 10:01:40;;;;;;;6.55;3.95;;;30.40;99.90;;;;;;4889663;29;20188;-62
2023/06/08 10:04:39;;;;;;;7.25;4.60;;;30.30;99.90;;;;;;4882065;29;20229;-61
2023/06/08 10:07:17;;;;;;;7.80;3.88;;;30.70;99.90;;;;;;4890588;29;20208;-60
2023/06/08 10:09:48;;;;;;;5.72;4.10;;;30.90;99.90;;;;;;4879558;29;20213;-60
2023/06/08 10:12:15;;;;;;;4.60;3.60;;;31.30;99.90;;;;;;4893180;29;20193;-61
2023/06/08 10:14:43;;;;;;;6.00;4.35;;;31.30;99.90;;;;;;4875334;29;20211;-61
2023/06/08 10:17:10;;;;;;;5.68;4.32;;;31.10;99.90;;;;;;4872647;29;20225;-60
2023/06/08 10:19:38;;;;;;;7.00;4.20;;;31.30;99.90;;;;;;4866454;29;20219;-60
2023/06/08 10:22:05;;;;;;;7.18;4.55;;;31.30;99.90;;;;;;4880228;29;20193;-60
2023/06/08 10:24:33;;;;;;;5.45;3.83;;;30.70;99.90;;;;;;4880637;29;20703;-61
2023/06/08 10:27:26;;;;;;;6.10;4.28;;;31.70;99.90;;;;;;4874705;29;20211;-60
2023/06/08 10:30:03;;;;;;;5.07;4.10;;;32.00;99.90;;;;;;4867969;29;20193;-60
2023/06/08 10:32:31;;;;;;;7.15;4.55;;;31.50;99.90;;;;;;4892245;29;20690;-61
2023/06/08 10:35:03;;;;;;;4.05;3.67;;;30.70;99.90;;;;;;4878622;29;20209;-61
2023/06/08 10:37:33;;;;;;;4.40;3.42;;;31.60;99.90;;;;;;4876759;29;20757;-60
2023/06/08 10:40:08;;;;;;;6.25;4.28;;;31.10;99.90;;;;;;4866761;29;20616;-60
2023/06/08 10:42:35;;;;;;;6.75;4.18;;;30.70;99.90;;;;;;4888382;29;20200;-62
2023/06/08 10:45:04;;;;;;;5.53;4.03;;;30.70;99.90;;;;;;4877835;29;20190;-61
2023/06/08 10:47:36;;;;;;;9.88;4.28;;;30.10;99.90;;;;;;4881191;29;20228;-60
2023/06/08 10:50:08;;;;;;;4.55;3.60;;;30.70;99.90;;;;;;4892159;29;20200;-61
2023/06/08 10:52:45;;;;;;;6.63;4.10;;;31.40;99.90;;;;;;4873754;29;20304;-62
2023/06/08 10:55:16;;;;;;;5.47;3.92;;;31.40;99.90;;;;;;4887076;29;20352;-60
2023/06/08 10:57:49;;;;;;;7.28;3.67;;;31.70;99.90;;;;;;4871941;29;20217;-60
2023/06/08 11:00:23;;;;;;;5.95;3.97;;;31.50;99.90;;;;;;4886537;29;20205;-61
2023/06/08 11:02:51;;;;;;;6.93;3.63;;;31.50;99.90;;;;;;4864158;29;20227;-61
2023/06/08 11:05:19;;;;;;;6.10;3.50;;;31.60;99.90;;;;;;4887864;29;20619;-61
2023/06/08 11:07:46;;;;;;;6.00;3.78;;;33.20;99.90;;;;;;4871835;29;20253;-60
2023/06/08 11:10:14;;;;;;;4.22;3.83;;;33.50;98.80;;;;;;4868610;29;20212;-61
2023/06/08 11:12:42;;;;;;;6.90;4.30;;;32.70;99.70;;;;;;4882810;29;20730;-61
2023/06/08 11:15:09;;;;;;;6.40;3.70;;;32.20;99.60;;;;;;4872063;29;20221;-60
2023/06/08 11:17:44;;;;;;;8.05;3.75;;;31.90;99.50;;;;;;4852826;29;20699;-60
2023/06/08 11:20:13;;;;;;;5.75;3.50;;;32.20;99.90;;;;;;4877786;29;20237;-61
2023/06/08 11:22:40;;;;;;;8.10;4.20;;;32.70;99.30;;;;;;4867312;29;20574;-60
2023/06/08 11:25:08;;;;;;;6.35;3.95;;;31.80;98.40;;;;;;4889045;29;20206;-61
2023/06/08 11:27:44;;;;;;;6.50;3.63;;;31.90;99.80;;;;;;4868448;29;20235;-61
2023/06/08 11:30:18;;;;;;;5.38;3.70;;;32.00;98.10;;;;;;4887061;29;20201;-61
2023/06/08 11:32:50;;;;;;;4.80;3.63;;;32.00;99.80;;;;;;4866200;29;20693;-60
2023/06/08 11:35:19;;;;;;;4.68;3.70;;;31.00;99.50;;;;;;4864245;29;20224;-62
2023/06/08 11:37:49;;;;;;;8.02;3.58;;;31.00;99.30;;;;;;4882034;29;20312;-62
2023/06/08 11:40:16;;;;;;;5.28;3.85;;;30.80;99.40;;;;;;4872886;29;20201;-62
2023/06/08 11:42:44;;;;;;;5.65;3.60;;;30.60;99.40;;;;;;4882630;29;20212;-62
2023/06/08 11:45:15;;;;;;;5.40;3.70;;;31.50;99.90;;;;;;4873103;29;20212;-62
2023/06/08 11:47:44;;;;;;;5.13;3.53;;;30.70;99.30;;;;;;4873404;29;20196;-59
2023/06/08 11:50:13;;;;;;;6.38;3.83;;;30.50;99.20;;;;;;4889587;29;20220;-62
2023/06/08 11:52:42;;;;;;;4.30;3.40;;;29.80;98.90;;;;;;4885333;29;20205;-60
2023/06/08 11:55:15;;;;;;;5.03;3.83;;;30.10;99.90;;;;;;4887912;29;20205;-60
2023/06/08 11:57:51;;;;;;;4.75;3.38;;;30.30;99.70;;;;;;4869782;29;20221;-61
2023/06/08 12:00:26;;;;;;;4.32;3.55;;;30.60;99.10;;;;;;4881644;29;20727;-63
2023/06/08 12:02:55;;;;;;;7.75;3.65;;;28.90;99.30;;;;;;4885590;29;20196;-61
2023/06/08 12:05:28;;;;;;;3.85;3.45;;;29.00;99.90;;;;;;4863432;29;20405;-60
2023/06/08 12:08:02;;;;;;;3.78;3.38;;;29.40;99.90;;;;;;4867628;29;20193;-60
2023/06/08 12:10:41;;;;;;;3.75;3.38;;;29.90;99.90;;;;;;4868646;29;20664;-61
2023/06/08 12:13:11;;;;;;;3.30;3.00;;;29.80;99.20;;;;;;4859576;29;20205;-57
2023/06/08 12:15:46;;;;;;;5.53;3.35;;;29.50;99.80;;;;;;4862227;29;20205;-62
2023/06/08 12:18:16;;;;;;;7.90;4.40;;;29.70;99.90;;;;;;4867171;29;20213;-56
2023/06/08 12:20:45;;;;;;;4.47;3.72;;;29.10;99.90;;;;;;4861339;29;20265;-58
2023/06/08 12:23:12;;;;;;;4.22;3.47;;;28.90;99.90;;;;;;4866464;29;20691;-58
2023/06/08 12:25:40;;;;;;;6.78;3.90;;;29.00;99.90;;;;;;4866513;29;20197;-58
2023/06/08 12:28:24;;;;;;;4.90;3.50;;;29.10;99.90;;;;;;4867024;29;20198;-58
2023/06/08 12:30:54;;;;;;;7.93;3.90;;;29.40;99.90;;;;;;4868921;29;20213;-59
2023/06/08 12:33:21;;;;;;;6.07;3.20;;;28.20;99.90;;;;;;4864920;29;20202;-57
2023/06/08 12:35:50;;;;;;;4.45;3.85;;;28.70;99.90;;;;;;4868627;29;20265;-57
2023/06/08 12:38:18;;;;;;;8.07;4.07;;;28.50;99.90;;;;;;4850468;29;20217;-59
2023/06/08 12:40:48;;;;;;;4.10;3.70;;;28.20;99.90;;;;;;4868534;29;20205;-57
2023/06/08 12:43:16;;;;;;;8.43;3.83;;;28.70;99.90;;;;;;4866702;29;20265;-59
2023/06/08 12:45:43;;;;;;;5.00;3.97;;;28.10;99.90;;;;;;4867598;29;20197;-58
2023/06/08 12:48:10;;;;;;;4.20;3.78;;;27.90;99.90;;;;;;4868210;29;20286;-60
2023/06/08 12:50:38;;;;;;;3.53;3.10;;;27.80;99.90;;;;;;4868561;29;20210;-59
2023/06/08 12:53:05;;;;;;;3.92;3.33;;;27.80;99.90;;;;;;4865905;29;20214;-59
2023/06/08 12:55:33;;;;;;;6.20;4.18;;;27.80;99.90;;;;;;4868752;29;20201;-59
2023/06/08 12:58:00;;;;;;;4.82;3.35;;;27.60;99.90;;;;;;4869070;29;20604;-60